Austin, KY

9:06 AM CDT on September 02, 2014 (GMT -0500)
Park City Glasgow Rd. | Change Station
CLOSE
Current Station
Personal Weather Station
Location: Glasgow, KY
Elevation: 736 ft
Nearby Weather Stations

Elev 736 ft 37.03 °N, 86.00 °W | Updated 22 seconds ago

Partly Cloudy
Partly Cloudy
81.4 °F
Feels Like 87 °F
N
1.0
Wind Variable Wind from SW
Gusts 6.0 mph

Today
High -- | Low -- °F
--% Chance of Precip.
Yesterday
High -- | Low -- °F
Precip. -- in
6:15 AM 7:10 PM
First Quarter, 51% visible
Pressure 30.03 in
Visibility 10.0 miles
Clouds Clear
Heat Index 87 °F
Dew Point 75 °F
Humidity 80%
Rainfall 0.00 in
Snow Depth Not available.
UV 3 out of 12
Pollen 10.30 out of 12
Air Quality Not available.
Flu Activity Not available.
METAR KGLW 021355Z AUTO 22006KT 10SM CLR 26/21 A3003 RMK AO2 T02610208

More Conditions Fewer Conditions

Pressure 30.03 in
Visibility 10.0 miles
Clouds Clear
Heat Index 87 °F
Dew Point 75 °F
Humidity 80%
Rainfall 0.00 in
Snow Depth Not available.
UV 3 out of 12
Pollen 10.30 out of 12
Air Quality Not available.
Flu Activity Not available.
METAR KGLW 021355Z AUTO 22006KT 10SM CLR 26/21 A3003 RMK AO2 T02610208

More Conditions Fewer Conditions

10-Day Weather Forecast

Almanac

Astronomy

Sep. 02, 2014 Rise Set
Actual Time 6:15 AM CDT 7:10 PM CDT
Civil Twilight 5:49 AM CDT 7:37 PM CDT
Nautical Twilight 5:17 AM CDT 8:08 PM CDT
Astronomical Twilight 4:45 AM CDT 8:40 PM CDT
Moon 1:48 PM CDT No Moon Set
Length of Visible Light 13h 47m
Length of Day
12h 55m
Tomorrow will be 2m 17s shorter.
First Quarter, 51% of the Moon is Illuminated
Today
First Quarter
Sep 8
Full
Sep 15
Last Quarter
Sep 24
New
Oct 1
First Quarter

Today's Extremes

State Highs State Lows

Community

WunderPhotos

Upload Photos

1,749,670 photos uploaded!

WunderBlogs® & News

Nearby

Snow Depth

Station Depth Elevation
No new snow has been reported.

Earthquake Activity

City Distance Mag. Time & Date
No recent earthquake activity has been reported nearby.
Minimum magnitude displayed is 2.5.

Coastal Water Temperatures

Place Temperature
No Stations Reporting

Nearby Weather Stations